Hawks, Michigan
Current Conditions -  °F | °C
As of 9:05 AM on Thursday 30 Oct 2014 (Local Time) from KPZQ Reporting Station
Overcast Overcast  
Wind Chill: 31°   Ceiling: 7000
Heat Index: 36°   Visibility: 10mi
Dew Point: 34°   Wind: 6mph
Humidity: 93%   Direction: 220°SW
Pressure: 30.1"   Gusts: NA
Location:  45.3°N, 83.89°W
Report Text: KPZQ 301305Z AUTO 22005KT 10SM OVC070 02/01 A3010 RMK AO2
Loading
Personal Weather Stations






























Interactive Weather Map New forecast layout! Learn more

10-Day Weather Forecast

Advertisements
Track Severe Weather on mobile